createdAt,value
2022-11-26T00:02:30.083Z,30.57
2022-11-26T00:04:59.755Z,25.70
2022-11-26T00:07:29.771Z,23.20
2022-11-26T00:09:58.508Z,28.07
2022-11-26T00:12:32.996Z,29.33
2022-11-26T00:15:10.469Z,24.93
2022-11-26T00:17:37.211Z,24.90
2022-11-26T00:20:04.265Z,29.07
2022-11-26T00:22:33.338Z,32.40
2022-11-26T00:25:00.054Z,25.97
2022-11-26T00:27:27.712Z,34.10
2022-11-26T00:29:55.436Z,32.47
2022-11-26T00:32:24.718Z,24.90
2022-11-26T00:34:51.994Z,23.50
2022-11-26T00:37:28.340Z,27.30
2022-11-26T00:39:57.080Z,32.53
2022-11-26T00:42:24.107Z,30.10
2022-11-26T00:44:51.093Z,26.73
2022-11-26T00:47:17.892Z,31.40
2022-11-26T00:49:44.623Z,28.37
2022-11-26T00:52:35.665Z,23.93
2022-11-26T00:55:19.280Z,35.07
2022-11-26T00:57:46.045Z,32.60
2022-11-26T01:00:17.901Z,29.97
2022-11-26T01:02:45.382Z,36.80
2022-11-26T01:05:12.648Z,33.17
2022-11-26T01:07:41.013Z,30.07
2022-11-26T01:10:25.653Z,30.43
2022-11-26T01:12:53.334Z,25.47
2022-11-26T01:15:22.191Z,30.33
2022-11-26T01:17:50.050Z,26.03
2022-11-26T01:20:29.480Z,24.27
2022-11-26T01:22:57.888Z,33.67
2022-11-26T01:25:26.575Z,42.37
2022-11-26T01:27:53.823Z,43.23
2022-11-26T01:30:27.258Z,31.30
2022-11-26T01:32:54.006Z,39.47
2022-11-26T01:35:21.481Z,39.50
2022-11-26T01:37:49.358Z,37.47
2022-11-26T01:40:25.302Z,38.93
2022-11-26T01:43:15.723Z,36.27
2022-11-26T01:45:42.709Z,43.53
2022-11-26T01:48:24.087Z,40.40
2022-11-26T01:51:19.038Z,44.20
2022-11-26T01:53:59.555Z,48.07
2022-11-26T01:56:30.737Z,40.23
2022-11-26T01:59:10.490Z,43.37
2022-11-26T02:01:37.365Z,47.13
2022-11-26T02:04:19.087Z,41.60
2022-11-26T02:06:48.853Z,42.83
2022-11-26T02:09:16.542Z,45.67
2022-11-26T02:11:44.491Z,43.53
2022-11-26T02:14:39.051Z,43.27
2022-11-26T02:17:19.468Z,50.50
2022-11-26T02:20:01.176Z,44.33
2022-11-26T02:22:37.032Z,49.33
2022-11-26T02:25:22.346Z,46.20
2022-11-26T02:27:49.172Z,55.60
2022-11-26T02:30:17.743Z,40.07
2022-11-26T02:33:12.500Z,48.60
2022-11-26T02:35:51.912Z,51.07
2022-11-26T02:38:20.605Z,36.33
2022-11-26T02:40:47.891Z,42.50
2022-11-26T02:43:16.699Z,45.67
2022-11-26T02:45:48.785Z,40.97
2022-11-26T02:48:22.456Z,42.03
2022-11-26T02:50:57.325Z,33.17
2022-11-26T02:53:28.222Z,33.67
2022-11-26T02:56:03.522Z,35.50
2022-11-26T02:58:32.148Z,37.93
2022-11-26T03:01:02.982Z,28.60
2022-11-26T03:03:34.493Z,28.73
2022-11-26T03:06:09.564Z,37.47
2022-11-26T03:08:37.725Z,28.40
2022-11-26T03:11:05.132Z,28.63
2022-11-26T03:13:32.228Z,35.70
2022-11-26T03:15:59.031Z,29.20
2022-11-26T03:18:26.042Z,30.13
2022-11-26T03:20:53.090Z,32.70
2022-11-26T03:23:20.192Z,32.87
2022-11-26T03:25:47.035Z,29.80
2022-11-26T03:28:14.234Z,28.53
2022-11-26T03:30:40.969Z,28.23
2022-11-26T03:33:07.714Z,28.67
2022-11-26T03:35:34.518Z,22.03
2022-11-26T03:38:01.396Z,27.43
2022-11-26T03:40:28.114Z,23.73
2022-11-26T03:42:54.855Z,25.50
2022-11-26T03:45:21.669Z,23.53
2022-11-26T03:47:48.583Z,26.37
2022-11-26T03:50:15.420Z,32.27
2022-11-26T03:52:42.190Z,29.83
2022-11-26T03:55:09.617Z,28.37
2022-11-26T03:57:36.712Z,26.70
2022-11-26T04:00:06.676Z,36.50
2022-11-26T04:02:33.467Z,30.50
2022-11-26T04:05:00.327Z,26.47
2022-11-26T04:07:27.147Z,32.10
2022-11-26T04:09:53.900Z,27.83
2022-11-26T04:12:20.633Z,22.60
2022-11-26T04:14:47.384Z,23.37
2022-11-26T04:17:14.091Z,31.77
2022-11-26T04:19:40.919Z,26.50
2022-11-26T04:22:07.653Z,28.13
2022-11-26T04:24:34.421Z,30.20
2022-11-26T04:27:01.193Z,27.27
2022-11-26T04:29:28.329Z,30.37
2022-11-26T04:31:55.354Z,24.87
2022-11-26T04:34:22.239Z,32.50
2022-11-26T04:36:49.128Z,32.93
2022-11-26T04:39:16.398Z,34.10
2022-11-26T04:41:43.180Z,31.20
2022-11-26T04:44:09.927Z,30.13
2022-11-26T04:46:36.696Z,31.17
2022-11-26T04:49:03.636Z,31.27
2022-11-26T04:51:30.431Z,33.73
2022-11-26T04:54:00.456Z,32.47
2022-11-26T04:56:29.673Z,31.23
2022-11-26T04:58:56.838Z,32.23
2022-11-26T05:01:23.640Z,29.97
2022-11-26T05:03:50.849Z,35.07
2022-11-26T05:06:17.703Z,30.33
2022-11-26T05:08:44.463Z,31.20
2022-11-26T05:11:11.245Z,31.10
2022-11-26T05:13:37.974Z,39.37
2022-11-26T05:16:05.079Z,35.10
2022-11-26T05:18:31.902Z,30.80
2022-11-26T05:20:58.755Z,33.53
2022-11-26T05:23:25.495Z,31.83
2022-11-26T05:25:52.273Z,29.23
2022-11-26T05:28:19.076Z,33.07
2022-11-26T05:30:45.847Z,32.27
2022-11-26T05:33:12.574Z,34.80
2022-11-26T05:35:39.819Z,35.47
2022-11-26T05:38:06.868Z,34.00
2022-11-26T05:40:33.702Z,29.17
2022-11-26T05:43:00.474Z,33.47
2022-11-26T05:45:27.546Z,28.70
2022-11-26T05:47:54.456Z,41.50
2022-11-26T05:50:21.206Z,35.70
2022-11-26T05:52:47.946Z,37.23
2022-11-26T05:55:16.447Z,33.57
2022-11-26T05:57:43.202Z,33.83
2022-11-26T06:00:10.650Z,34.90
2022-11-26T06:02:37.940Z,30.53
2022-11-26T06:05:05.214Z,42.43
2022-11-26T06:07:32.687Z,33.43
2022-11-26T06:09:59.556Z,27.20
2022-11-26T06:12:27.039Z,30.93
2022-11-26T06:14:53.861Z,34.87
2022-11-26T06:17:21.013Z,36.00
2022-11-26T06:19:48.020Z,37.00
2022-11-26T06:22:15.040Z,40.37
2022-11-26T06:24:42.298Z,34.73
2022-11-26T06:27:09.106Z,43.60
2022-11-26T06:29:35.980Z,29.80
2022-11-26T06:32:02.720Z,33.50
2022-11-26T06:34:29.470Z,29.53
2022-11-26T06:36:56.385Z,31.00
2022-11-26T06:39:23.217Z,35.20
2022-11-26T06:41:49.996Z,39.73
2022-11-26T06:44:16.754Z,47.37
2022-11-26T06:46:43.524Z,42.07
2022-11-26T06:49:10.448Z,45.40
2022-11-26T06:51:37.281Z,44.73
2022-11-26T06:54:04.262Z,46.03
2022-11-26T06:56:30.971Z,48.93
2022-11-26T06:58:57.949Z,43.90
2022-11-26T07:01:26.687Z,50.07
2022-11-26T07:03:53.861Z,43.63
2022-11-26T07:06:23.904Z,32.80
2022-11-26T07:08:51.678Z,34.03
2022-11-26T07:11:19.221Z,39.40
2022-11-26T07:13:46.065Z,39.03
2022-11-26T07:16:13.471Z,43.17
2022-11-26T07:18:40.664Z,39.80
2022-11-26T07:21:12.793Z,38.13
2022-11-26T07:23:40.621Z,37.37
2022-11-26T07:26:09.002Z,35.63
2022-11-26T07:28:36.029Z,32.67
2022-11-26T07:31:07.405Z,32.90
2022-11-26T07:33:37.715Z,34.67
2022-11-26T07:36:07.430Z,33.97
2022-11-26T07:38:34.892Z,33.90
2022-11-26T07:41:07.064Z,31.70
2022-11-26T07:43:39.109Z,30.73
2022-11-26T07:46:08.513Z,38.47
2022-11-26T07:48:36.064Z,40.37
2022-11-26T07:51:03.233Z,32.50
2022-11-26T07:53:32.057Z,38.43
2022-11-26T07:55:58.823Z,31.43
2022-11-26T07:58:26.780Z,34.67
2022-11-26T08:00:54.909Z,34.33
2022-11-26T08:03:22.103Z,25.47
2022-11-26T08:05:48.930Z,27.70
2022-11-26T08:08:15.756Z,23.37
2022-11-26T08:10:42.608Z,29.40
2022-11-26T08:13:09.364Z,25.60
2022-11-26T08:15:37.644Z,23.20
2022-11-26T08:18:04.495Z,24.00
2022-11-26T08:20:31.347Z,23.70
2022-11-26T08:22:58.129Z,20.83
2022-11-26T08:25:24.884Z,21.90
2022-11-26T08:27:51.590Z,25.27
2022-11-26T08:30:18.500Z,17.67
2022-11-26T08:32:45.293Z,22.33
2022-11-26T08:35:12.550Z,20.03
2022-11-26T08:37:40.773Z,17.13
2022-11-26T08:40:09.633Z,17.20
2022-11-26T08:42:36.539Z,20.83
2022-11-26T08:45:03.525Z,20.47
2022-11-26T08:47:30.284Z,19.13
2022-11-26T08:49:56.982Z,19.93
2022-11-26T08:52:23.842Z,19.27
2022-11-26T08:54:50.675Z,19.37
2022-11-26T08:57:17.696Z,20.03
2022-11-26T08:59:44.490Z,19.40
2022-11-26T09:02:16.008Z,19.57
2022-11-26T09:04:45.266Z,19.00
2022-11-26T09:07:12.319Z,18.70
2022-11-26T09:09:39.255Z,19.20
2022-11-26T09:12:06.531Z,18.83
2022-11-26T09:14:39.745Z,18.67
2022-11-26T09:17:07.745Z,19.03
2022-11-26T09:19:34.519Z,18.80
2022-11-26T09:22:01.313Z,18.80
2022-11-26T09:24:28.040Z,17.63
2022-11-26T09:26:54.955Z,16.43
2022-11-26T09:29:23.395Z,17.93
2022-11-26T09:34:38.417Z,17.00
2022-11-26T09:37:05.494Z,17.90
2022-11-26T09:39:32.244Z,18.53
2022-11-26T09:42:16.687Z,17.73
2022-11-26T09:44:43.345Z,17.37
2022-11-26T09:47:17.284Z,17.80
2022-11-26T09:49:56.581Z,16.63
2022-11-26T09:52:28.597Z,16.03
2022-11-26T09:55:23.715Z,15.47
2022-11-26T09:58:10.729Z,17.30
2022-11-26T10:00:49.521Z,17.00
2022-11-26T10:03:24.654Z,16.30
2022-11-26T10:06:00.734Z,16.23
2022-11-26T10:08:30.212Z,17.17
2022-11-26T10:11:03.932Z,16.13
2022-11-26T10:14:08.089Z,16.77
2022-11-26T10:16:59.926Z,18.97
2022-11-26T10:19:55.071Z,19.10
2022-11-26T10:22:28.891Z,16.00
2022-11-26T10:24:58.107Z,17.57
2022-11-26T10:27:34.020Z,17.80
2022-11-26T10:30:18.700Z,17.93
2022-11-26T10:32:48.301Z,17.50
2022-11-26T10:35:24.965Z,18.00
2022-11-26T10:37:52.644Z,18.40
2022-11-26T10:40:28.225Z,17.77
2022-11-26T10:42:58.094Z,16.57
2022-11-26T10:45:35.476Z,17.57
2022-11-26T10:48:27.200Z,17.47
2022-11-26T10:51:13.572Z,17.17
2022-11-26T10:53:56.840Z,18.03
2022-11-26T10:56:37.106Z,17.30
2022-11-26T10:59:17.315Z,17.07
2022-11-26T11:01:44.451Z,16.50
2022-11-26T11:04:29.004Z,15.87
2022-11-26T11:06:56.303Z,16.30
2022-11-26T11:09:35.903Z,16.30
2022-11-26T11:12:11.993Z,17.90
2022-11-26T11:14:43.160Z,16.20
2022-11-26T11:17:41.049Z,16.73
2022-11-26T11:20:17.225Z,17.00
2022-11-26T11:22:45.854Z,17.63
2022-11-26T11:25:28.449Z,18.07
2022-11-26T11:28:11.738Z,16.57
2022-11-26T11:30:41.438Z,17.03
2022-11-26T11:33:23.047Z,16.70
2022-11-26T11:36:05.418Z,16.37
2022-11-26T11:39:12.332Z,16.60
2022-11-26T11:41:47.646Z,17.57
2022-11-26T11:44:26.347Z,17.63
2022-11-26T11:46:59.204Z,17.93
2022-11-26T11:50:04.125Z,18.07
2022-11-26T11:53:05.071Z,17.27
2022-11-26T11:55:44.760Z,20.90
2022-11-26T11:58:31.436Z,20.37
2022-11-26T12:01:36.350Z,19.17
2022-11-26T12:04:10.418Z,19.40
2022-11-26T12:06:51.621Z,19.97
2022-11-26T12:09:48.147Z,20.17
2022-11-26T12:12:35.980Z,18.70
2022-11-26T12:15:33.914Z,18.23
2022-11-26T12:18:06.537Z,19.77
2022-11-26T12:20:49.405Z,20.73
2022-11-26T12:23:24.460Z,21.03
2022-11-26T12:26:12.526Z,20.07
2022-11-26T12:28:51.039Z,21.37
2022-11-26T12:31:32.820Z,23.13
2022-11-26T12:34:10.002Z,19.87
2022-11-26T12:36:51.109Z,20.43
2022-11-26T12:39:53.212Z,19.00
2022-11-26T12:43:13.423Z,21.20
2022-11-26T12:45:51.257Z,22.23
2022-11-26T12:48:58.575Z,17.97
2022-11-26T12:51:46.499Z,22.00
2022-11-26T12:54:32.170Z,20.30
2022-11-26T12:57:02.357Z,20.20
2022-11-26T12:59:37.888Z,18.93
2022-11-26T13:02:23.173Z,20.07
2022-11-26T13:04:51.182Z,20.90
2022-11-26T13:07:42.563Z,18.47
2022-11-26T13:10:34.804Z,18.07
2022-11-26T13:13:16.171Z,19.00
2022-11-26T13:16:09.612Z,18.03
2022-11-26T13:18:41.585Z,18.10
2022-11-26T13:21:30.989Z,17.57
2022-11-26T13:24:19.556Z,19.47
2022-11-26T13:27:26.565Z,18.63
2022-11-26T13:30:13.788Z,19.80
2022-11-26T13:33:17.611Z,19.43
2022-11-26T13:35:59.441Z,21.53
2022-11-26T13:38:41.299Z,19.43
2022-11-26T13:41:17.005Z,19.77
2022-11-26T13:44:09.988Z,17.87
2022-11-26T13:46:46.650Z,17.97
2022-11-26T13:49:37.077Z,23.83
2022-11-26T13:52:17.889Z,17.77
2022-11-26T13:54:56.154Z,17.27
2022-11-26T13:57:31.297Z,16.60
2022-11-26T13:59:59.333Z,16.57
2022-11-26T14:02:38.119Z,18.50
2022-11-26T14:05:29.193Z,21.10
2022-11-26T14:08:34.394Z,20.47
2022-11-26T14:11:01.275Z,17.20
2022-11-26T14:13:28.188Z,18.17
2022-11-26T14:15:57.052Z,20.37
2022-11-26T14:18:48.752Z,18.13
2022-11-26T14:21:15.853Z,18.97
2022-11-26T14:23:43.814Z,17.83
2022-11-26T14:26:15.557Z,17.60
2022-11-26T14:28:42.300Z,17.37
2022-11-26T14:31:23.942Z,18.27
2022-11-26T14:33:55.883Z,17.87
2022-11-26T14:36:28.577Z,17.37
2022-11-26T14:39:13.383Z,17.60
2022-11-26T14:41:43.445Z,17.13
2022-11-26T14:44:15.664Z,17.27
2022-11-26T14:46:45.832Z,17.47
2022-11-26T14:49:22.250Z,20.90
2022-11-26T14:51:50.340Z,16.47
2022-11-26T14:54:43.123Z,16.50
2022-11-26T14:57:17.315Z,17.97
2022-11-26T15:00:00.071Z,18.60
2022-11-26T15:02:29.540Z,16.13
2022-11-26T15:05:00.599Z,16.93
2022-11-26T15:07:28.803Z,16.90
2022-11-26T15:10:26.022Z,17.33
2022-11-26T15:12:53.500Z,18.03
2022-11-26T15:15:24.350Z,17.77
2022-11-26T15:17:56.221Z,18.40
2022-11-26T15:20:24.634Z,17.33
2022-11-26T15:22:54.451Z,17.10
2022-11-26T15:25:27.803Z,18.03
2022-11-26T15:28:04.928Z,17.07
2022-11-26T15:30:35.166Z,17.10
2022-11-26T15:33:14.117Z,18.17
2022-11-26T15:35:43.726Z,17.13
2022-11-26T15:38:18.801Z,15.90
2022-11-26T15:40:51.708Z,16.43
2022-11-26T15:43:33.456Z,16.97
2022-11-26T15:46:12.506Z,18.13
2022-11-26T15:48:52.820Z,19.10
2022-11-26T15:51:37.616Z,16.47
2022-11-26T15:54:23.256Z,17.13
2022-11-26T15:56:56.551Z,21.87
2022-11-26T15:59:27.070Z,16.87
2022-11-26T16:01:54.341Z,17.70
2022-11-26T16:04:33.543Z,17.60
2022-11-26T16:07:09.482Z,17.10
2022-11-26T16:09:36.346Z,17.63
2022-11-26T16:12:03.248Z,17.93
2022-11-26T16:14:38.350Z,18.23
2022-11-26T16:17:16.722Z,20.60
2022-11-26T16:19:53.413Z,20.13
2022-11-26T16:22:26.959Z,17.37
2022-11-26T16:25:05.063Z,18.80
2022-11-26T16:27:33.086Z,20.33
2022-11-26T16:30:02.651Z,17.97
2022-11-26T16:32:29.577Z,17.80
2022-11-26T16:34:56.442Z,18.57
2022-11-26T16:37:31.700Z,18.03
2022-11-26T16:40:14.835Z,18.40
2022-11-26T16:42:41.600Z,18.40
2022-11-26T16:45:11.401Z,17.67
2022-11-26T16:47:43.605Z,17.83
2022-11-26T16:50:25.433Z,18.20
2022-11-26T16:52:56.025Z,17.57
2022-11-26T16:55:26.167Z,18.40
2022-11-26T16:57:59.854Z,18.37
2022-11-26T17:00:27.366Z,18.73
2022-11-26T17:02:54.905Z,18.83
2022-11-26T17:05:22.851Z,19.27
2022-11-26T17:07:53.647Z,18.73
2022-11-26T17:10:22.929Z,18.53
2022-11-26T17:12:50.178Z,18.57
2022-11-26T17:15:18.010Z,19.10
2022-11-26T17:17:45.414Z,21.80
2022-11-26T17:20:22.382Z,25.77
2022-11-26T17:22:49.592Z,20.57
2022-11-26T17:25:16.538Z,24.13
2022-11-26T17:27:44.062Z,22.37
2022-11-26T17:30:20.828Z,25.53
2022-11-26T17:32:47.854Z,21.33
2022-11-26T17:35:14.953Z,23.70
2022-11-26T17:37:42.008Z,24.87
2022-11-26T17:40:20.825Z,24.03
2022-11-26T17:42:48.190Z,20.67
2022-11-26T17:45:15.465Z,23.27
2022-11-26T17:47:42.772Z,22.97
2022-11-26T17:50:20.127Z,26.77
2022-11-26T17:52:48.689Z,23.37
2022-11-26T17:55:16.643Z,23.50
2022-11-26T17:57:43.889Z,24.37
2022-11-26T18:00:17.366Z,22.60
2022-11-26T18:02:46.231Z,26.17
2022-11-26T18:05:14.464Z,23.43
2022-11-26T18:07:41.710Z,26.20
2022-11-26T18:10:14.382Z,23.07
2022-11-26T18:12:41.507Z,25.27
2022-11-26T18:15:08.581Z,22.10
2022-11-26T18:17:35.381Z,26.03
2022-11-26T18:20:02.171Z,22.37
2022-11-26T18:22:30.373Z,22.37
2022-11-26T18:24:58.379Z,28.17
2022-11-26T18:27:27.613Z,21.30
2022-11-26T18:29:54.705Z,20.03
2022-11-26T18:32:21.653Z,24.17
2022-11-26T18:34:51.615Z,21.03
2022-11-26T18:37:19.003Z,28.77
2022-11-26T18:39:45.973Z,21.33
2022-11-26T18:45:00.708Z,21.47
2022-11-26T18:47:27.641Z,28.53
2022-11-26T18:49:54.472Z,26.20
2022-11-26T18:52:21.368Z,25.50
2022-11-26T18:54:48.184Z,26.03
2022-11-26T18:57:15.193Z,28.17
2022-11-26T18:59:42.523Z,23.07
2022-11-26T19:02:10.769Z,22.37
2022-11-26T19:04:39.057Z,25.03
2022-11-26T19:07:05.983Z,26.23
2022-11-26T19:09:32.840Z,25.97
2022-11-26T19:11:59.776Z,25.90
2022-11-26T19:14:26.883Z,23.37
2022-11-26T19:16:53.938Z,23.87
2022-11-26T19:19:21.629Z,25.47
2022-11-26T19:21:50.378Z,22.67
2022-11-26T19:24:17.452Z,22.20
2022-11-26T19:26:44.371Z,24.47
2022-11-26T19:29:12.737Z,21.93
2022-11-26T19:31:40.186Z,26.93
2022-11-26T19:34:11.560Z,18.13
2022-11-26T19:36:38.592Z,24.57
2022-11-26T19:39:06.986Z,26.00
2022-11-26T19:41:33.960Z,24.17
2022-11-26T19:44:03.627Z,22.47
2022-11-26T19:46:31.219Z,27.93
2022-11-26T19:48:58.382Z,27.57
2022-11-26T19:51:26.972Z,22.60
2022-11-26T19:53:55.824Z,20.57
2022-11-26T19:56:28.317Z,23.33
2022-11-26T19:58:57.978Z,28.50
2022-11-26T20:01:30.691Z,23.43
2022-11-26T20:04:06.847Z,24.27
2022-11-26T20:06:35.369Z,21.47
2022-11-26T20:09:04.321Z,24.90
2022-11-26T20:11:31.205Z,32.43
2022-11-26T20:13:58.715Z,30.23
2022-11-26T20:16:28.196Z,27.03
2022-11-26T20:18:55.816Z,25.23
2022-11-26T20:21:27.284Z,30.00
2022-11-26T20:23:57.142Z,25.80
2022-11-26T20:26:29.430Z,25.63
2022-11-26T20:29:00.045Z,24.43
2022-11-26T20:31:27.260Z,24.83
2022-11-26T20:33:54.764Z,19.90
2022-11-26T20:36:23.249Z,23.33
2022-11-26T20:38:55.085Z,27.37
2022-11-26T20:41:23.257Z,23.67
2022-11-26T20:43:55.075Z,25.37
2022-11-26T20:46:25.613Z,26.80
2022-11-26T20:48:53.068Z,22.33
2022-11-26T20:51:22.047Z,29.53
2022-11-26T20:53:50.909Z,36.47
2022-11-26T20:56:19.732Z,28.70
2022-11-26T20:58:46.951Z,29.40
2022-11-26T21:01:25.052Z,31.83
2022-11-26T21:03:52.901Z,34.43
2022-11-26T21:06:29.936Z,34.53
2022-11-26T21:09:02.493Z,35.10
2022-11-26T21:11:30.347Z,26.63
2022-11-26T21:13:58.957Z,24.23
2022-11-26T21:16:25.973Z,25.83
2022-11-26T21:18:54.825Z,27.33
2022-11-26T21:21:21.992Z,28.90
2022-11-26T21:23:48.969Z,35.17
2022-11-26T21:26:18.372Z,31.33
2022-11-26T21:28:49.819Z,24.27
2022-11-26T21:31:21.304Z,33.40
2022-11-26T21:33:54.664Z,31.87
2022-11-26T21:36:21.869Z,28.67
2022-11-26T21:38:49.988Z,38.27
2022-11-26T21:41:19.146Z,31.23
2022-11-26T21:43:48.460Z,25.73
2022-11-26T21:46:18.125Z,30.97
2022-11-26T21:48:45.130Z,29.63
2022-11-26T21:51:15.326Z,24.33
2022-11-26T21:53:43.036Z,42.90
2022-11-26T21:56:12.650Z,40.20
